Brokaw, WI

7:49 PM CDT on May 24, 2015 (GMT -0500)
NorthWest Wausau, near NTC | | Change Station
CLOSE
Current Station
Personal Weather Station
Location: Wausau, WI
Elevation: 1230 ft
Nearby Weather Stations

Elev 1230 ft 44.98 °N, 89.65 °W | Updated 8 seconds ago

Rain
Rain
57.9 °F
Feels Like 57.9 °F
N
0.0
Wind Variable Wind from NNW
Gusts 0.0 mph

Today
High -- | Low -- °F
--% Chance of Precip.
Yesterday
High -- | Low -- °F
Precip. -- in
5:20 AM 8:30 PM
Waxing Crescent, 43% visible
Pressure 29.96 in
Visibility 3.0 miles
Clouds Mostly Cloudy 500 ft
Overcast 900 ft
Dew Point 58 °F
Humidity 99%
Rainfall 0.20 in
Snow Depth Not available.
UV 0.0 out of 12
Pollen 6.90 out of 12
Air Quality Not available.
Flu Activity Sporadic
SPECI KAUW 250036Z AUTO 11007KT 3SM RA BR BKN005 OVC009 14/13 A2996 RMK AO2 P0010 T01390133

More Conditions Fewer Conditions

Pressure 29.96 in
Visibility 3.0 miles
Clouds Mostly Cloudy 500 ft
Overcast 900 ft
Dew Point 58 °F
Humidity 99%
Rainfall 0.20 in
Snow Depth Not available.
UV 0.0 out of 12
Pollen 6.90 out of 12
Air Quality Not available.
Flu Activity Sporadic
SPECI KAUW 250036Z AUTO 11007KT 3SM RA BR BKN005 OVC009 14/13 A2996 RMK AO2 P0010 T01390133

More Conditions Fewer Conditions

10-Day Weather Forecast

Almanac

Astronomy

May. 24, 2015 Rise Set
Actual Time
Civil Twilight
Nautical Twilight
Astronomical Twilight
Moon
Length of Visible Light
Length of Day
Tomorrow will be .
, % of the Moon is Illuminated

Today's Extremes

State Highs State Lows

Community

WunderPhotos

Upload Photos

1,823,907 photos uploaded!

WunderBlogs® & News

Nearby

Air Quality

  Air Quality AQ Index Pollutant
Not available.

Snow Depth

Station Depth Elevation

Earthquake Activity

City Distance Mag. Time & Date
Minimum magnitude displayed is 2.5.

Coastal Water Temperatures

Place Temperature

Stations

Nearby Weather Stations

Station Location Temp. Windchill Dew Point Humidity Wind Precip. Elev Updated Type